sensor_id;sensor_type;location;lat;lon;timestamp;pressure;altitude;pressure_sealevel;temperature;humidity
41624;BME280;27319;50.306;18.926;2023-11-21T00:03:20;97621.22;;;7.14;88.66
41624;BME280;27319;50.306;18.926;2023-11-21T00:07:21;97628.13;;;7.08;89.20
41624;BME280;27319;50.306;18.926;2023-11-21T00:11:21;97634.31;;;7.05;88.60
41624;BME280;27319;50.306;18.926;2023-11-21T00:15:22;97633.47;;;6.94;89.43
41624;BME280;27319;50.306;18.926;2023-11-21T00:19:23;97637.34;;;7.00;89.14
41624;BME280;27319;50.306;18.926;2023-11-21T00:23:24;97638.88;;;7.01;89.03
41624;BME280;27319;50.306;18.926;2023-11-21T00:27:25;97644.28;;;6.97;89.43
41624;BME280;27319;50.306;18.926;2023-11-21T00:31:26;97649.66;;;7.01;89.37
41624;BME280;27319;50.306;18.926;2023-11-21T00:35:26;97645.41;;;7.00;89.65
41624;BME280;27319;50.306;18.926;2023-11-21T00:38:55;97655.81;;;6.98;89.93
41624;BME280;27319;50.306;18.926;2023-11-21T00:41:56;97646.59;;;7.02;89.89
41624;BME280;27319;50.306;18.926;2023-11-21T00:45:17;97638.88;;;7.01;89.88
41624;BME280;27319;50.306;18.926;2023-11-21T00:49:18;97651.97;;;7.02;90.14
41624;BME280;27319;50.306;18.926;2023-11-21T00:52:59;97649.69;;;7.04;90.39
41624;BME280;27319;50.306;18.926;2023-11-21T00:56:00;97645.06;;;7.05;90.18
41624;BME280;27319;50.306;18.926;2023-11-21T00:59:01;97646.59;;;7.02;90.78
41624;BME280;27319;50.306;18.926;2023-11-21T01:02:02;97649.72;;;7.15;90.12
41624;BME280;27319;50.306;18.926;2023-11-21T01:05:05;97645.88;;;7.16;90.27
41624;BME280;27319;50.306;18.926;2023-11-21T01:08:08;97638.19;;;7.18;90.33
41624;BME280;27319;50.306;18.926;2023-11-21T01:11:09;97635.06;;;7.09;90.78
41624;BME280;27319;50.306;18.926;2023-11-21T01:14:32;97645.09;;;7.19;89.68
41624;BME280;27319;50.306;18.926;2023-11-21T01:18:33;97644.31;;;7.15;89.43
41624;BME280;27319;50.306;18.926;2023-11-21T01:22:34;97638.97;;;7.19;88.86
41624;BME280;27319;50.306;18.926;2023-11-21T01:26:34;97644.69;;;7.10;89.41
41624;BME280;27319;50.306;18.926;2023-11-21T01:30:35;97657.41;;;7.17;88.74
41624;BME280;27319;50.306;18.926;2023-11-21T01:34:36;97658.19;;;7.17;88.67
41624;BME280;27319;50.306;18.926;2023-11-21T01:38:39;97655.09;;;7.15;88.66
41624;BME280;27319;50.306;18.926;2023-11-21T01:42:40;97655.47;;;7.10;88.36
41624;BME280;27319;50.306;18.926;2023-11-21T01:46:40;97665.06;;;7.04;88.93
41624;BME280;27319;50.306;18.926;2023-11-21T01:50:41;97652.78;;;7.10;88.56
41624;BME280;27319;50.306;18.926;2023-11-21T01:54:43;97664.25;;;7.00;89.16
41624;BME280;27319;50.306;18.926;2023-11-21T01:58:44;97660.03;;;7.02;88.61
41624;BME280;27319;50.306;18.926;2023-11-21T02:02:45;97655.00;;;6.94;89.39
41624;BME280;27319;50.306;18.926;2023-11-21T02:06:45;97666.56;;;6.98;88.88
41624;BME280;27319;50.306;18.926;2023-11-21T02:10:46;97669.25;;;6.91;89.33
41624;BME280;27319;50.306;18.926;2023-11-21T02:14:47;97665.41;;;6.95;88.60
41624;BME280;27319;50.306;18.926;2023-11-21T02:18:48;97668.84;;;6.92;88.44
41624;BME280;27319;50.306;18.926;2023-11-21T02:22:52;97673.00;;;6.76;89.65
41624;BME280;27319;50.306;18.926;2023-11-21T02:26:52;97669.56;;;6.82;89.32
41624;BME280;27319;50.306;18.926;2023-11-21T02:30:52;97668.03;;;6.85;89.03
41624;BME280;27319;50.306;18.926;2023-11-21T02:34:53;97666.47;;;6.80;89.30
41624;BME280;27319;50.306;18.926;2023-11-21T02:38:54;97664.16;;;6.79;89.13
41624;BME280;27319;50.306;18.926;2023-11-21T02:42:55;97668.03;;;6.78;89.07
41624;BME280;27319;50.306;18.926;2023-11-21T02:46:56;97666.06;;;6.75;89.43
41624;BME280;27319;50.306;18.926;2023-11-21T02:50:57;97677.16;;;6.66;89.75
41624;BME280;27319;50.306;18.926;2023-11-21T02:54:57;97679.16;;;6.80;89.35
41624;BME280;27319;50.306;18.926;2023-11-21T02:59:01;97676.44;;;6.72;89.60
41624;BME280;27319;50.306;18.926;2023-11-21T03:03:02;97682.53;;;6.66;89.58
41624;BME280;27319;50.306;18.926;2023-11-21T03:07:03;97677.56;;;6.68;89.73
41624;BME280;27319;50.306;18.926;2023-11-21T03:11:04;97687.16;;;6.65;89.42
41624;BME280;27319;50.306;18.926;2023-11-21T03:15:05;97689.84;;;6.62;89.84
41624;BME280;27319;50.306;18.926;2023-11-21T03:19:05;97688.66;;;6.59;89.70
41624;BME280;27319;50.306;18.926;2023-11-21T03:23:06;97686.78;;;6.63;89.33
41624;BME280;27319;50.306;18.926;2023-11-21T03:27:07;97684.09;;;6.63;89.57
41624;BME280;27319;50.306;18.926;2023-11-21T03:31:08;97684.13;;;6.70;89.35
41624;BME280;27319;50.306;18.926;2023-11-21T03:35:15;97699.41;;;6.59;89.61
41624;BME280;27319;50.306;18.926;2023-11-21T03:39:15;97698.72;;;6.69;89.23
41624;BME280;27319;50.306;18.926;2023-11-21T03:43:16;97700.22;;;6.63;89.79
41624;BME280;27319;50.306;18.926;2023-11-21T03:47:17;97705.22;;;6.61;89.68
41624;BME280;27319;50.306;18.926;2023-11-21T03:51:18;97698.69;;;6.62;89.83
41624;BME280;27319;50.306;18.926;2023-11-21T03:55:18;97698.28;;;6.57;90.02
41624;BME280;27319;50.306;18.926;2023-11-21T03:59:19;97710.94;;;6.56;90.07
41624;BME280;27319;50.306;18.926;2023-11-21T04:03:20;97698.28;;;6.60;90.10
41624;BME280;27319;50.306;18.926;2023-11-21T04:07:20;97703.59;;;6.53;90.51
41624;BME280;27319;50.306;18.926;2023-11-21T04:11:21;97712.47;;;6.57;90.27
41624;BME280;27319;50.306;18.926;2023-11-21T04:15:22;97715.56;;;6.59;90.22
41624;BME280;27319;50.306;18.926;2023-11-21T04:19:23;97720.53;;;6.57;90.12
41624;BME280;27319;50.306;18.926;2023-11-21T04:23:24;97710.53;;;6.54;90.48
41624;BME280;27319;50.306;18.926;2023-11-21T04:27:25;97718.19;;;6.52;90.52
41624;BME280;27319;50.306;18.926;2023-11-21T04:31:25;97729.34;;;6.51;90.69
41624;BME280;27319;50.306;18.926;2023-11-21T04:35:26;97729.38;;;6.54;90.83
41624;BME280;27319;50.306;18.926;2023-11-21T04:39:27;97727.03;;;6.53;90.90
41624;BME280;27319;50.306;18.926;2023-11-21T04:43:28;97732.78;;;6.51;90.94
41624;BME280;27319;50.306;18.926;2023-11-21T04:47:29;97727.41;;;6.51;90.81
41624;BME280;27319;50.306;18.926;2023-11-21T04:51:29;97734.00;;;6.57;90.70
41624;BME280;27319;50.306;18.926;2023-11-21T04:55:30;97731.69;;;6.56;90.73
41624;BME280;27319;50.306;18.926;2023-11-21T04:59:30;97728.59;;;6.54;91.18
41624;BME280;27319;50.306;18.926;2023-11-21T05:03:31;97736.31;;;6.55;90.87
41624;BME280;27319;50.306;18.926;2023-11-21T05:07:32;97727.03;;;6.49;91.04
41624;BME280;27319;50.306;18.926;2023-11-21T05:11:32;97740.13;;;6.54;90.70
41624;BME280;27319;50.306;18.926;2023-11-21T05:15:33;97739.38;;;6.57;90.64
41624;BME280;27319;50.306;18.926;2023-11-21T05:19:34;97741.63;;;6.52;90.79
41624;BME280;27319;50.306;18.926;2023-11-21T05:23:35;97737.81;;;6.53;90.71
41624;BME280;27319;50.306;18.926;2023-11-21T05:27:35;97739.75;;;6.56;90.78
41624;BME280;27319;50.306;18.926;2023-11-21T05:31:36;97739.38;;;6.57;90.48
41624;BME280;27319;50.306;18.926;2023-11-21T05:35:37;97741.69;;;6.55;90.79
41624;BME280;27319;50.306;18.926;2023-11-21T05:39:38;97756.28;;;6.54;90.92
41624;BME280;27319;50.306;18.926;2023-11-21T05:43:39;97755.47;;;6.50;90.97
41624;BME280;27319;50.306;18.926;2023-11-21T05:47:41;97764.34;;;6.54;90.91
41624;BME280;27319;50.306;18.926;2023-11-21T05:51:41;97768.53;;;6.48;91.51
41624;BME280;27319;50.306;18.926;2023-11-21T05:55:41;97766.97;;;6.47;91.57
41624;BME280;27319;50.306;18.926;2023-11-21T05:59:42;97771.59;;;6.50;91.56
41624;BME280;27319;50.306;18.926;2023-11-21T06:03:43;97781.63;;;6.53;91.32
41624;BME280;27319;50.306;18.926;2023-11-21T06:07:44;97785.47;;;6.52;91.22
41624;BME280;27319;50.306;18.926;2023-11-21T06:11:44;97784.72;;;6.55;91.23
41624;BME280;27319;50.306;18.926;2023-11-21T06:15:45;97792.38;;;6.50;91.59
41624;BME280;27319;50.306;18.926;2023-11-21T06:19:46;97797.00;;;6.53;91.63
41624;BME280;27319;50.306;18.926;2023-11-21T06:23:50;97799.72;;;6.56;91.12
41624;BME280;27319;50.306;18.926;2023-11-21T06:27:50;97803.91;;;6.54;90.81
41624;BME280;27319;50.306;18.926;2023-11-21T06:31:51;97804.69;;;6.54;91.01
41624;BME280;27319;50.306;18.926;2023-11-21T06:35:36;97802.06;;;6.61;90.77
41624;BME280;27319;50.306;18.926;2023-11-21T06:39:20;97801.97;;;6.51;90.85
41624;BME280;27319;50.306;18.926;2023-11-21T06:43:21;97810.84;;;6.55;90.89
41624;BME280;27319;50.306;18.926;2023-11-21T06:47:25;97806.13;;;6.45;91.38
41624;BME280;27319;50.306;18.926;2023-11-21T06:51:25;97820.00;;;6.50;91.19
41624;BME280;27319;50.306;18.926;2023-11-21T06:55:26;97817.00;;;6.55;91.05
41624;BME280;27319;50.306;18.926;2023-11-21T06:59:07;97827.78;;;6.59;90.63
41624;BME280;27319;50.306;18.926;2023-11-21T07:02:09;97828.88;;;6.51;91.41
41624;BME280;27319;50.306;18.926;2023-11-21T07:05:13;97827.78;;;6.55;90.77
41624;BME280;27319;50.306;18.926;2023-11-21T07:08:19;97821.25;;;6.60;90.63
41624;BME280;27319;50.306;18.926;2023-11-21T07:11:40;97820.97;;;6.68;90.23
41624;BME280;27319;50.306;18.926;2023-11-21T07:15:41;97828.19;;;6.61;89.96
41624;BME280;27319;50.306;18.926;2023-11-21T07:19:42;97825.09;;;6.59;90.35
41624;BME280;27319;50.306;18.926;2023-11-21T07:23:43;97825.50;;;6.61;90.36
41624;BME280;27319;50.306;18.926;2023-11-21T07:27:43;97828.50;;;6.52;90.49
41624;BME280;27319;50.306;18.926;2023-11-21T07:31:35;97837.00;;;6.58;90.50
41624;BME280;27319;50.306;18.926;2023-11-21T07:35:16;97833.88;;;6.52;90.40
41624;BME280;27319;50.306;18.926;2023-11-21T07:39:17;97838.19;;;6.60;90.06
41624;BME280;27319;50.306;18.926;2023-11-21T07:43:18;97842.06;;;6.66;90.03
41624;BME280;27319;50.306;18.926;2023-11-21T07:47:19;97842.00;;;6.56;90.12
41624;BME280;27319;50.306;18.926;2023-11-21T07:51:19;97843.16;;;6.58;89.84
41624;BME280;27319;50.306;18.926;2023-11-21T07:55:20;97845.41;;;6.49;90.39
41624;BME280;27319;50.306;18.926;2023-11-21T07:59:21;97840.72;;;6.43;90.56
41624;BME280;27319;50.306;18.926;2023-11-21T08:03:22;97843.84;;;6.48;90.15
41624;BME280;27319;50.306;18.926;2023-11-21T08:07:23;97844.69;;;6.56;89.85
41624;BME280;27319;50.306;18.926;2023-11-21T08:11:23;97853.13;;;6.54;89.39
41624;BME280;27319;50.306;18.926;2023-11-21T08:15:24;97857.72;;;6.54;90.11
41624;BME280;27319;50.306;18.926;2023-11-21T08:19:25;97857.75;;;6.57;89.69
41624;BME280;27319;50.306;18.926;2023-11-21T08:23:26;97855.06;;;6.57;89.79
41624;BME280;27319;50.306;18.926;2023-11-21T08:27:27;97855.47;;;6.59;89.47
41624;BME280;27319;50.306;18.926;2023-11-21T08:31:33;97851.66;;;6.64;89.21
41624;BME280;27319;50.306;18.926;2023-11-21T08:35:34;97861.97;;;6.58;89.63
41624;BME280;27319;50.306;18.926;2023-11-21T08:39:36;97868.19;;;6.62;89.35
41624;BME280;27319;50.306;18.926;2023-11-21T08:43:36;97871.19;;;6.57;89.81
41624;BME280;27319;50.306;18.926;2023-11-21T08:47:36;97880.16;;;6.68;89.87
41624;BME280;27319;50.306;18.926;2023-11-21T08:51:37;97883.31;;;6.78;89.08
41624;BME280;27319;50.306;18.926;2023-11-21T08:55:38;97884.88;;;6.82;89.31
41624;BME280;27319;50.306;18.926;2023-11-21T08:59:40;97881.00;;;6.80;88.90
41624;BME280;27319;50.306;18.926;2023-11-21T09:03:41;97884.97;;;6.93;88.95
41624;BME280;27319;50.306;18.926;2023-11-21T09:07:21;97887.72;;;7.00;88.76
41624;BME280;27319;50.306;18.926;2023-11-21T09:10:22;97882.69;;;6.95;88.35
41624;BME280;27319;50.306;18.926;2023-11-21T09:13:44;97880.44;;;7.04;88.67
41624;BME280;27319;50.306;18.926;2023-11-21T09:17:45;97883.56;;;7.13;88.94
41624;BME280;27319;50.306;18.926;2023-11-21T09:21:45;97890.50;;;7.10;88.19
41624;BME280;27319;50.306;18.926;2023-11-21T09:25:46;97879.75;;;7.14;88.14
41624;BME280;27319;50.306;18.926;2023-11-21T09:29:47;97884.78;;;7.19;87.49
41624;BME280;27319;50.306;18.926;2023-11-21T09:33:54;97876.06;;;7.36;87.77
41624;BME280;27319;50.306;18.926;2023-11-21T09:37:54;97877.66;;;7.48;86.35
41624;BME280;27319;50.306;18.926;2023-11-21T09:42:12;97878.75;;;7.40;86.88
41624;BME280;27319;50.306;18.926;2023-11-21T09:46:11;97879.56;;;7.47;86.11
41624;BME280;27319;50.306;18.926;2023-11-21T09:50:12;97876.50;;;7.45;85.82
41624;BME280;27319;50.306;18.926;2023-11-21T09:54:13;97873.81;;;7.45;86.16
41624;BME280;27319;50.306;18.926;2023-11-21T09:58:16;97871.84;;;7.42;86.05
41624;BME280;27319;50.306;18.926;2023-11-21T10:02:17;97872.16;;;7.30;85.90
41624;BME280;27319;50.306;18.926;2023-11-21T10:06:17;97883.25;;;7.18;85.47
41624;BME280;27319;50.306;18.926;2023-11-21T10:10:19;97873.63;;;7.21;86.48
41624;BME280;27319;50.306;18.926;2023-11-21T10:14:19;97883.19;;;7.11;85.69
41624;BME280;27319;50.306;18.926;2023-11-21T10:18:19;97895.53;;;7.12;85.71
41624;BME280;27319;50.306;18.926;2023-11-21T10:22:20;97892.00;;;7.08;86.04
41624;BME280;27319;50.306;18.926;2023-11-21T10:26:24;97888.16;;;7.09;85.16
41624;BME280;27319;50.306;18.926;2023-11-21T10:30:35;97890.03;;;6.98;84.19
41624;BME280;27319;50.306;18.926;2023-11-21T10:34:35;97892.25;;;6.92;85.13
41624;BME280;27319;50.306;18.926;2023-11-21T10:38:42;97891.91;;;6.94;85.60
41624;BME280;27319;50.306;18.926;2023-11-21T10:42:42;97887.63;;;6.89;85.55
41624;BME280;27319;50.306;18.926;2023-11-21T10:46:43;97887.28;;;6.91;86.21
41624;BME280;27319;50.306;18.926;2023-11-21T10:50:45;97875.75;;;6.94;87.94
41624;BME280;27319;50.306;18.926;2023-11-21T10:54:45;97890.41;;;7.00;84.99
41624;BME280;27319;50.306;18.926;2023-11-21T10:58:45;97885.84;;;7.04;83.16
41624;BME280;27319;50.306;18.926;2023-11-21T11:02:52;97884.34;;;7.13;84.43
41624;BME280;27319;50.306;18.926;2023-11-21T11:06:56;97884.38;;;7.17;85.11
41624;BME280;27319;50.306;18.926;2023-11-21T11:10:53;97882.47;;;7.18;84.33
41624;BME280;27319;50.306;18.926;2023-11-21T11:14:54;97877.88;;;7.18;83.48
41624;BME280;27319;50.306;18.926;2023-11-21T11:18:54;97877.41;;;7.09;85.12
41624;BME280;27319;50.306;18.926;2023-11-21T11:22:59;97877.50;;;7.23;84.94
41624;BME280;27319;50.306;18.926;2023-11-21T11:27:10;97872.56;;;7.32;83.78
41624;BME280;27319;50.306;18.926;2023-11-21T11:30:55;97882.22;;;7.37;84.40
41624;BME280;27319;50.306;18.926;2023-11-21T11:34:54;97875.31;;;7.39;83.60
41624;BME280;27319;50.306;18.926;2023-11-21T11:38:51;97879.94;;;7.42;84.31
41624;BME280;27319;50.306;18.926;2023-11-21T11:42:58;97886.47;;;7.38;84.15
41624;BME280;27319;50.306;18.926;2023-11-21T11:47:01;97881.84;;;7.38;84.20
41624;BME280;27319;50.306;18.926;2023-11-21T11:51:12;97885.59;;;7.27;83.95
41624;BME280;27319;50.306;18.926;2023-11-21T11:55:15;97892.06;;;7.15;84.55
41624;BME280;27319;50.306;18.926;2023-11-21T11:59:15;97892.84;;;7.16;84.88
41624;BME280;27319;50.306;18.926;2023-11-21T12:03:16;97893.63;;;7.16;84.71
41624;BME280;27319;50.306;18.926;2023-11-21T12:07:22;97905.13;;;7.13;84.93
41624;BME280;27319;50.306;18.926;2023-11-21T12:11:05;97896.22;;;7.05;86.03
41624;BME280;27319;50.306;18.926;2023-11-21T12:14:26;97896.59;;;7.04;86.31
41624;BME280;27319;50.306;18.926;2023-11-21T12:18:27;97900.34;;;6.92;87.76
41624;BME280;27319;50.306;18.926;2023-11-21T12:22:28;97898.03;;;6.91;88.39
41624;BME280;27319;50.306;18.926;2023-11-21T12:26:28;97898.13;;;7.01;87.06
41624;BME280;27319;50.306;18.926;2023-11-21T12:30:30;97893.50;;;7.02;86.87
41624;BME280;27319;50.306;18.926;2023-11-21T12:34:30;97894.25;;;6.99;86.88
41624;BME280;27319;50.306;18.926;2023-11-21T12:38:34;97897.28;;;6.94;86.76
41624;BME280;27319;50.306;18.926;2023-11-21T12:42:34;97899.59;;;6.95;87.33
41624;BME280;27319;50.306;18.926;2023-11-21T12:46:35;97902.59;;;6.87;87.39
41624;BME280;27319;50.306;18.926;2023-11-21T12:50:39;97906.56;;;7.00;87.09
41624;BME280;27319;50.306;18.926;2023-11-21T12:54:39;97911.94;;;7.00;86.98
41624;BME280;27319;50.306;18.926;2023-11-21T12:58:40;97911.97;;;7.03;87.84
41624;BME280;27319;50.306;18.926;2023-11-21T13:02:41;97910.81;;;7.01;87.92
41624;BME280;27319;50.306;18.926;2023-11-21T13:06:42;97919.22;;;6.96;87.72
41624;BME280;27319;50.306;18.926;2023-11-21T13:10:46;97911.09;;;6.92;87.67
41624;BME280;27319;50.306;18.926;2023-11-21T13:14:49;97922.59;;;6.86;87.92
41624;BME280;27319;50.306;18.926;2023-11-21T13:18:50;97922.50;;;6.75;88.94
41624;BME280;27319;50.306;18.926;2023-11-21T13:22:54;97921.38;;;6.80;88.75
41624;BME280;27319;50.306;18.926;2023-11-21T13:26:54;97925.28;;;6.86;88.27
41624;BME280;27319;50.306;18.926;2023-11-21T13:30:55;97917.91;;;6.76;89.52
41624;BME280;27319;50.306;18.926;2023-11-21T13:34:44;97921.44;;;6.87;88.72
41624;BME280;27319;50.306;18.926;2023-11-21T13:38:51;97920.28;;;6.84;89.10
41624;BME280;27319;50.306;18.926;2023-11-21T13:42:54;97929.94;;;6.89;88.98
41624;BME280;27319;50.306;18.926;2023-11-21T13:46:52;97930.28;;;6.84;88.41
41624;BME280;27319;50.306;18.926;2023-11-21T13:50:53;97930.28;;;6.84;89.38
41624;BME280;27319;50.306;18.926;2023-11-21T13:54:54;97933.25;;;6.75;89.41
41624;BME280;27319;50.306;18.926;2023-11-21T13:58:54;97937.19;;;6.85;88.54
41624;BME280;27319;50.306;18.926;2023-11-21T14:02:55;97941.84;;;6.88;88.40
41624;BME280;27319;50.306;18.926;2023-11-21T14:07:07;97943.31;;;6.82;89.07
41624;BME280;27319;50.306;18.926;2023-11-21T14:11:14;97940.56;;;6.75;89.61
41624;BME280;27319;50.306;18.926;2023-11-21T14:15:14;97946.81;;;6.86;88.85
41624;BME280;27319;50.306;18.926;2023-11-21T14:19:16;97944.06;;;6.79;89.57
41624;BME280;27319;50.306;18.926;2023-11-21T14:23:17;97941.78;;;6.81;89.13
41624;BME280;27319;50.306;18.926;2023-11-21T14:27:27;97950.19;;;6.76;89.19
41624;BME280;27319;50.306;18.926;2023-11-21T14:31:19;97943.25;;;6.75;88.96
41624;BME280;27319;50.306;18.926;2023-11-21T14:35:20;97955.56;;;6.76;88.96
41624;BME280;27319;50.306;18.926;2023-11-21T14:39:21;97960.19;;;6.79;89.26
41624;BME280;27319;50.306;18.926;2023-11-21T14:43:06;97960.97;;;6.76;89.33
41624;BME280;27319;50.306;18.926;2023-11-21T14:47:07;97960.19;;;6.79;88.74
41624;BME280;27319;50.306;18.926;2023-11-21T14:51:08;97964.00;;;6.74;89.67
41624;BME280;27319;50.306;18.926;2023-11-21T14:55:08;97964.09;;;6.85;89.20
41624;BME280;27319;50.306;18.926;2023-11-21T14:59:12;97964.78;;;6.75;89.86
41624;BME280;27319;50.306;18.926;2023-11-21T15:03:13;97973.97;;;6.70;90.53
41624;BME280;27319;50.306;18.926;2023-11-21T15:06:51;97971.28;;;6.70;90.27
41624;BME280;27319;50.306;18.926;2023-11-21T15:10:51;97977.06;;;6.72;90.67
41624;BME280;27319;50.306;18.926;2023-11-21T15:14:55;97974.38;;;6.72;89.82
41624;BME280;27319;50.306;18.926;2023-11-21T15:18:56;97978.66;;;6.77;90.45
41624;BME280;27319;50.306;18.926;2023-11-21T15:22:56;97983.22;;;6.72;90.15
41624;BME280;27319;50.306;18.926;2023-11-21T15:26:57;97987.88;;;6.76;89.78
41624;BME280;27319;50.306;18.926;2023-11-21T15:30:58;97984.00;;;6.73;90.21
41624;BME280;27319;50.306;18.926;2023-11-21T15:34:58;97987.13;;;6.79;90.00
41624;BME280;27319;50.306;18.926;2023-11-21T15:38:59;97989.72;;;6.71;90.84
41624;BME280;27319;50.306;18.926;2023-11-21T15:43:00;97992.50;;;6.79;89.73
41624;BME280;27319;50.306;18.926;2023-11-21T15:47:01;98007.13;;;6.78;89.64
41624;BME280;27319;50.306;18.926;2023-11-21T15:51:01;98008.25;;;6.77;89.95
41624;BME280;27319;50.306;18.926;2023-11-21T15:55:02;98017.13;;;6.81;90.19
41624;BME280;27319;50.306;18.926;2023-11-21T15:59:03;98026.34;;;6.80;89.82
41624;BME280;27319;50.306;18.926;2023-11-21T16:03:06;98024.03;;;6.78;89.83
41624;BME280;27319;50.306;18.926;2023-11-21T16:06:44;98029.44;;;6.82;89.42
41624;BME280;27319;50.306;18.926;2023-11-21T16:10:07;98020.25;;;6.83;89.76
41624;BME280;27319;50.306;18.926;2023-11-21T16:14:06;98036.38;;;6.83;89.32
41624;BME280;27319;50.306;18.926;2023-11-21T16:18:07;98041.69;;;6.76;90.05
41624;BME280;27319;50.306;18.926;2023-11-21T16:22:08;98054.00;;;6.77;90.01
41624;BME280;27319;50.306;18.926;2023-11-21T16:26:09;98054.72;;;6.73;90.26
41624;BME280;27319;50.306;18.926;2023-11-21T16:30:09;98069.91;;;6.55;89.57
41624;BME280;27319;50.306;18.926;2023-11-21T16:34:13;98072.97;;;6.57;89.02
41624;BME280;27319;50.306;18.926;2023-11-21T16:37:55;98083.06;;;6.34;88.98
41624;BME280;27319;50.306;18.926;2023-11-21T16:41:03;98082.22;;;6.00;89.51
41624;BME280;27319;50.306;18.926;2023-11-21T16:44:05;98089.88;;;6.02;89.24
41624;BME280;27319;50.306;18.926;2023-11-21T16:47:25;98094.97;;;5.84;89.89
41624;BME280;27319;50.306;18.926;2023-11-21T16:51:26;98108.13;;;5.89;89.85
41624;BME280;27319;50.306;18.926;2023-11-21T16:55:27;98103.94;;;5.69;89.35
41624;BME280;27319;50.306;18.926;2023-11-21T16:59:28;98112.22;;;5.60;89.59
41624;BME280;27319;50.306;18.926;2023-11-21T17:03:08;98112.00;;;5.46;89.92
41624;BME280;27319;50.306;18.926;2023-11-21T17:06:30;98111.75;;;5.32;89.61
41624;BME280;27319;50.306;18.926;2023-11-21T17:10:30;98121.97;;;5.03;90.43
41624;BME280;27319;50.306;18.926;2023-11-21T17:14:31;98130.03;;;5.03;89.58
41624;BME280;27319;50.306;18.926;2023-11-21T17:18:32;98135.44;;;5.07;89.39
41624;BME280;27319;50.306;18.926;2023-11-21T17:22:33;98142.19;;;4.97;89.59
41624;BME280;27319;50.306;18.926;2023-11-21T17:26:13;98146.97;;;4.88;89.29
41624;BME280;27319;50.306;18.926;2023-11-21T17:29:35;98155.16;;;4.95;88.69
41624;BME280;27319;50.306;18.926;2023-11-21T17:33:37;98159.66;;;4.72;88.56
41624;BME280;27319;50.306;18.926;2023-11-21T17:37:37;98157.84;;;4.41;88.91
41624;BME280;27319;50.306;18.926;2023-11-21T17:41:41;98165.63;;;4.30;89.25
41624;BME280;27319;50.306;18.926;2023-11-21T17:45:17;98163.22;;;4.25;89.84
41624;BME280;27319;50.306;18.926;2023-11-21T17:48:18;98180.09;;;4.26;89.67
41624;BME280;27319;50.306;18.926;2023-11-21T17:51:19;98177.25;;;4.03;88.85
41624;BME280;27319;50.306;18.926;2023-11-21T17:54:19;98185.91;;;4.12;89.30
41624;BME280;27319;50.306;18.926;2023-11-21T17:57:20;98182.03;;;3.94;88.89
41624;BME280;27319;50.306;18.926;2023-11-21T18:00:21;98197.38;;;3.81;88.44
41624;BME280;27319;50.306;18.926;2023-11-21T18:03:26;98191.25;;;3.81;89.13
41624;BME280;27319;50.306;18.926;2023-11-21T18:06:26;98197.97;;;3.75;87.93
41624;BME280;27319;50.306;18.926;2023-11-21T18:09:29;98200.25;;;3.73;88.68
41624;BME280;27319;50.306;18.926;2023-11-21T18:12:30;98201.88;;;3.77;88.35
41624;BME280;27319;50.306;18.926;2023-11-21T18:15:31;98197.28;;;3.62;87.79
41624;BME280;27319;50.306;18.926;2023-11-21T18:18:31;98209.63;;;3.67;88.59
41624;BME280;27319;50.306;18.926;2023-11-21T18:21:32;98215.44;;;3.69;87.50
41624;BME280;27319;50.306;18.926;2023-11-21T18:24:34;98220.66;;;3.49;87.71
41624;BME280;27319;50.306;18.926;2023-11-21T18:27:35;98215.84;;;3.27;88.68
41624;BME280;27319;50.306;18.926;2023-11-21T18:30:36;98229.94;;;3.40;88.17
41624;BME280;27319;50.306;18.926;2023-11-21T18:33:37;98223.81;;;3.39;87.17
41624;BME280;27319;50.306;18.926;2023-11-21T18:36:58;98231.50;;;3.13;86.78
41624;BME280;27319;50.306;18.926;2023-11-21T18:40:59;98243.03;;;3.01;88.41
41624;BME280;27319;50.306;18.926;2023-11-21T18:45:03;98250.81;;;3.06;88.51
41624;BME280;27319;50.306;18.926;2023-11-21T18:49:04;98262.03;;;3.12;88.98
41624;BME280;27319;50.306;18.926;2023-11-21T18:52:44;98266.97;;;2.98;89.23
41624;BME280;27319;50.306;18.926;2023-11-21T18:55:45;98254.94;;;3.04;88.26
41624;BME280;27319;50.306;18.926;2023-11-21T18:58:47;98259.53;;;3.03;87.78
41624;BME280;27319;50.306;18.926;2023-11-21T19:01:48;98281.00;;;3.07;87.49
41624;BME280;27319;50.306;18.926;2023-11-21T19:04:49;98271.41;;;3.18;87.87
41624;BME280;27319;50.306;18.926;2023-11-21T19:07:49;98278.16;;;2.88;86.80
41624;BME280;27319;50.306;18.926;2023-11-21T19:10:50;98288.84;;;2.88;87.83
41624;BME280;27319;50.306;18.926;2023-11-21T19:13:51;98287.75;;;2.89;88.10
41624;BME280;27319;50.306;18.926;2023-11-21T19:16:54;98284.84;;;2.82;87.43
41624;BME280;27319;50.306;18.926;2023-11-21T19:19:54;98291.31;;;2.81;88.11
41624;BME280;27319;50.306;18.926;2023-11-21T19:22:55;98293.22;;;2.56;87.24
41624;BME280;27319;50.306;18.926;2023-11-21T19:25:56;98300.69;;;2.74;87.57
41624;BME280;27319;50.306;18.926;2023-11-21T19:29:04;98303.22;;;2.59;87.10
41624;BME280;27319;50.306;18.926;2023-11-21T19:32:25;98311.81;;;2.64;86.64
41624;BME280;27319;50.306;18.926;2023-11-21T19:36:26;98322.41;;;2.61;88.11
41624;BME280;27319;50.306;18.926;2023-11-21T19:40:27;98326.81;;;2.32;88.37
41624;BME280;27319;50.306;18.926;2023-11-21T19:44:27;98337.84;;;2.43;88.05
41624;BME280;27319;50.306;18.926;2023-11-21T19:48:28;98343.41;;;2.26;88.90
41624;BME280;27319;50.306;18.926;2023-11-21T19:52:29;98352.19;;;2.26;88.20
41624;BME280;27319;50.306;18.926;2023-11-21T19:56:30;98362.56;;;2.28;87.44
41624;BME280;27319;50.306;18.926;2023-11-21T20:00:31;98359.41;;;2.14;88.10
41624;BME280;27319;50.306;18.926;2023-11-21T20:04:31;98376.81;;;1.99;88.17
41624;BME280;27319;50.306;18.926;2023-11-21T20:08:35;98386.97;;;2.06;87.94
41624;BME280;27319;50.306;18.926;2023-11-21T20:12:36;98393.75;;;2.03;86.94
41624;BME280;27319;50.306;18.926;2023-11-21T20:16:39;98395.91;;;1.89;88.14
41624;BME280;27319;50.306;18.926;2023-11-21T20:20:35;98400.47;;;1.88;87.83
41624;BME280;27319;50.306;18.926;2023-11-21T20:23:36;98402.22;;;2.05;87.48